Aviation Digital Data Service (ADDS)

Output produced by METARs form (1918 UTC 25 October 2021)
found at http://www.aviationweather.gov/metar/data/
 
KGSO 251736Z 2518/2618 20010G17KT P6SM SCT035 BKN100 
     FM252100 24008KT P6SM VCSH SCT025 BKN035 BKN100 
     TEMPO 2523/2602 1 1/2SM TSRA BKN025CB 
     FM260400 30010G18KT P6SM SCT050 
     FM261400 32016G28KT P6SM FEW200